sensor_id;sensor_type;location;lat;lon;timestamp;pressure;altitude;pressure_sealevel;temperature;humidity
42289;BME280;30230;47.520;19.016;2023-02-21T00:02:03;98969.66;;;8.51;65.84
42289;BME280;30230;47.520;19.016;2023-02-21T00:04:22;98964.31;;;8.58;65.22
42289;BME280;30230;47.520;19.016;2023-02-21T00:06:43;98971.69;;;8.77;63.83
42289;BME280;30230;47.520;19.016;2023-02-21T00:09:02;98963.69;;;8.91;62.81
42289;BME280;30230;47.520;19.016;2023-02-21T00:11:21;98953.00;;;9.10;61.48
42289;BME280;30230;47.520;19.016;2023-02-21T00:13:41;98955.69;;;9.17;61.59
42289;BME280;30230;47.520;19.016;2023-02-21T00:15:59;98955.25;;;9.13;61.89
42289;BME280;30230;47.520;19.016;2023-02-21T00:18:18;98956.13;;;9.21;61.01
42289;BME280;30230;47.520;19.016;2023-02-21T00:20:37;98957.38;;;9.25;60.98
42289;BME280;30230;47.520;19.016;2023-02-21T00:22:56;98953.47;;;9.27;60.16
42289;BME280;30230;47.520;19.016;2023-02-21T00:25:15;98951.19;;;9.31;60.45
42289;BME280;30230;47.520;19.016;2023-02-21T00:27:34;98958.25;;;9.38;60.52
42289;BME280;30230;47.520;19.016;2023-02-21T00:29:53;98949.72;;;9.35;59.75
42289;BME280;30230;47.520;19.016;2023-02-21T00:32:12;98962.81;;;9.38;60.03
42289;BME280;30230;47.520;19.016;2023-02-21T00:34:31;98956.97;;;9.28;60.32
42289;BME280;30230;47.520;19.016;2023-02-21T00:36:53;98961.56;;;9.34;60.01
42289;BME280;30230;47.520;19.016;2023-02-21T00:39:12;98959.50;;;9.36;58.76
42289;BME280;30230;47.520;19.016;2023-02-21T00:41:31;98968.00;;;9.39;59.65
42289;BME280;30230;47.520;19.016;2023-02-21T00:46:19;98969.03;;;9.38;59.47
42289;BME280;30230;47.520;19.016;2023-02-21T00:48:38;98956.59;;;9.31;59.95
42289;BME280;30230;47.520;19.016;2023-02-21T00:50:57;98964.47;;;9.46;58.81
42289;BME280;30230;47.520;19.016;2023-02-21T00:53:16;98959.06;;;9.39;59.26
42289;BME280;30230;47.520;19.016;2023-02-21T00:55:35;98964.03;;;9.35;59.76
42289;BME280;30230;47.520;19.016;2023-02-21T00:57:54;98956.59;;;9.31;59.02
42289;BME280;30230;47.520;19.016;2023-02-21T01:00:17;98941.63;;;9.28;59.01
42289;BME280;30230;47.520;19.016;2023-02-21T01:02:36;98951.59;;;9.28;59.08
42289;BME280;30230;47.520;19.016;2023-02-21T01:04:55;98962.38;;;9.28;59.26
42289;BME280;30230;47.520;19.016;2023-02-21T01:07:13;98956.13;;;9.21;59.77
42289;BME280;30230;47.520;19.016;2023-02-21T01:09:32;98922.47;;;9.03;59.75
42289;BME280;30230;47.520;19.016;2023-02-21T01:11:52;98956.31;;;9.12;60.47
42289;BME280;30230;47.520;19.016;2023-02-21T01:14:11;98954.44;;;9.13;60.58
42289;BME280;30230;47.520;19.016;2023-02-21T01:16:31;98947.16;;;9.00;61.20
42289;BME280;30230;47.520;19.016;2023-02-21T01:18:50;98953.16;;;9.02;60.91
42289;BME280;30230;47.520;19.016;2023-02-21T01:21:14;98957.69;;;8.95;61.35
42289;BME280;30230;47.520;19.016;2023-02-21T01:23:34;98952.88;;;8.84;62.25
42289;BME280;30230;47.520;19.016;2023-02-21T01:25:52;98957.03;;;8.93;61.59
42289;BME280;30230;47.520;19.016;2023-02-21T01:28:11;98952.66;;;8.79;62.17
42289;BME280;30230;47.520;19.016;2023-02-21T01:30:30;98948.94;;;8.86;62.46
42289;BME280;30230;47.520;19.016;2023-02-21T01:32:49;98958.66;;;8.81;62.26
42289;BME280;30230;47.520;19.016;2023-02-21T01:35:08;98949.66;;;8.60;63.18
42289;BME280;30230;47.520;19.016;2023-02-21T01:37:27;98958.09;;;8.57;63.61
42289;BME280;30230;47.520;19.016;2023-02-21T01:39:46;98960.84;;;8.64;63.02
42289;BME280;30230;47.520;19.016;2023-02-21T01:42:05;98948.03;;;8.73;63.09
42289;BME280;30230;47.520;19.016;2023-02-21T01:46:52;98937.44;;;9.06;61.22
42289;BME280;30230;47.520;19.016;2023-02-21T01:49:15;98917.59;;;9.20;60.29
42289;BME280;30230;47.520;19.016;2023-02-21T01:51:38;98927.69;;;9.05;60.98
42289;BME280;30230;47.520;19.016;2023-02-21T01:53:58;98928.66;;;8.91;61.68
42289;BME280;30230;47.520;19.016;2023-02-21T01:56:17;98928.66;;;8.91;61.85
42289;BME280;30230;47.520;19.016;2023-02-21T01:58:36;98912.88;;;8.81;62.50
42289;BME280;30230;47.520;19.016;2023-02-21T02:00:55;98922.81;;;8.80;62.03
42289;BME280;30230;47.520;19.016;2023-02-21T02:03:17;98924.03;;;8.78;62.30
42289;BME280;30230;47.520;19.016;2023-02-21T02:05:38;98916.16;;;8.76;62.00
42289;BME280;30230;47.520;19.016;2023-02-21T02:07:58;98916.97;;;8.70;62.30
42289;BME280;30230;47.520;19.016;2023-02-21T02:10:17;98920.53;;;8.77;62.17
42289;BME280;30230;47.520;19.016;2023-02-21T02:22:35;98914.72;;;8.74;62.02
42289;BME280;30230;47.520;19.016;2023-02-21T02:35:10;98899.19;;;8.76;62.94
42289;BME280;30230;47.520;19.016;2023-02-21T02:44:17;98899.03;;;8.84;62.66
42289;BME280;30230;47.520;19.016;2023-02-21T02:48:38;98875.41;;;8.86;62.87
42289;BME280;30230;47.520;19.016;2023-02-21T02:50:40;98871.66;;;8.80;62.85
42289;BME280;30230;47.520;19.016;2023-02-21T02:52:49;98888.41;;;8.76;62.98
42289;BME280;30230;47.520;19.016;2023-02-21T02:54:57;98875.31;;;8.66;64.14
42289;BME280;30230;47.520;19.016;2023-02-21T02:57:00;98880.56;;;8.81;63.77
42289;BME280;30230;47.520;19.016;2023-02-21T02:59:08;98882.66;;;8.92;63.45
42289;BME280;30230;47.520;19.016;2023-02-21T03:08:16;98882.72;;;9.05;62.92
42289;BME280;30230;47.520;19.016;2023-02-21T03:15:02;98878.38;;;9.18;62.85
42289;BME280;30230;47.520;19.016;2023-02-21T03:17:08;98862.00;;;9.19;62.82
42289;BME280;30230;47.520;19.016;2023-02-21T03:19:15;98877.56;;;9.24;63.20
42289;BME280;30230;47.520;19.016;2023-02-21T03:21:20;98859.09;;;9.07;63.53
42289;BME280;30230;47.520;19.016;2023-02-21T03:23:25;98870.75;;;9.34;63.10
42289;BME280;30230;47.520;19.016;2023-02-21T03:25:28;98876.53;;;9.25;62.96
42289;BME280;30230;47.520;19.016;2023-02-21T03:27:30;98872.19;;;9.24;62.58
42289;BME280;30230;47.520;19.016;2023-02-21T03:29:33;98860.34;;;9.25;63.46
42289;BME280;30230;47.520;19.016;2023-02-21T03:31:38;98870.69;;;9.14;63.29
42289;BME280;30230;47.520;19.016;2023-02-21T03:33:41;98858.50;;;9.25;62.48
42289;BME280;30230;47.520;19.016;2023-02-21T03:35:41;98877.16;;;9.27;62.81
42289;BME280;30230;47.520;19.016;2023-02-21T03:37:48;98877.78;;;9.16;63.03
42289;BME280;30230;47.520;19.016;2023-02-21T03:39:49;98883.56;;;9.19;63.16
42289;BME280;30230;47.520;19.016;2023-02-21T03:41:49;98888.78;;;9.34;62.75
42289;BME280;30230;47.520;19.016;2023-02-21T03:43:49;98885.47;;;9.25;62.70
42289;BME280;30230;47.520;19.016;2023-02-21T03:45:50;98890.19;;;9.17;63.39
42289;BME280;30230;47.520;19.016;2023-02-21T03:47:50;98889.34;;;9.09;63.10
42289;BME280;30230;47.520;19.016;2023-02-21T03:49:50;98881.06;;;9.11;63.72
42289;BME280;30230;47.520;19.016;2023-02-21T03:51:51;98850.94;;;8.87;63.30
42289;BME280;30230;47.520;19.016;2023-02-21T03:53:51;98888.94;;;9.06;63.20
42289;BME280;30230;47.520;19.016;2023-02-21T03:55:52;98880.25;;;9.10;63.34
42289;BME280;30230;47.520;19.016;2023-02-21T03:57:52;98884.78;;;9.03;63.25
42289;BME280;30230;47.520;19.016;2023-02-21T03:59:53;98882.28;;;8.95;64.11
42289;BME280;30230;47.520;19.016;2023-02-21T04:01:53;98886.84;;;9.01;64.05
42289;BME280;30230;47.520;19.016;2023-02-21T04:03:53;98876.69;;;9.03;63.71
42289;BME280;30230;47.520;19.016;2023-02-21T04:05:54;98881.47;;;9.01;63.95
42289;BME280;30230;47.520;19.016;2023-02-21T04:07:54;98887.69;;;9.08;63.75
42289;BME280;30230;47.520;19.016;2023-02-21T04:09:54;98881.91;;;9.05;63.70
42289;BME280;30230;47.520;19.016;2023-02-21T04:11:55;98888.91;;;8.99;63.97
42289;BME280;30230;47.520;19.016;2023-02-21T04:13:55;98874.63;;;9.05;64.25
42289;BME280;30230;47.520;19.016;2023-02-21T04:15:56;98886.47;;;9.11;63.16
42289;BME280;30230;47.520;19.016;2023-02-21T04:17:56;98885.84;;;9.16;63.36
42289;BME280;30230;47.520;19.016;2023-02-21T04:19:57;98872.00;;;9.25;62.72
42289;BME280;30230;47.520;19.016;2023-02-21T04:21:57;98887.94;;;9.27;62.77
42289;BME280;30230;47.520;19.016;2023-02-21T04:23:57;98891.47;;;9.21;62.95
42289;BME280;30230;47.520;19.016;2023-02-21T04:25:58;98875.47;;;9.12;63.22
42289;BME280;30230;47.520;19.016;2023-02-21T04:27:58;98882.34;;;9.15;63.40
42289;BME280;30230;47.520;19.016;2023-02-21T04:29:59;98871.13;;;9.05;63.70
42289;BME280;30230;47.520;19.016;2023-02-21T04:32:00;98865.72;;;9.05;63.48
42289;BME280;30230;47.520;19.016;2023-02-21T04:34:02;98870.91;;;9.00;64.18
42289;BME280;30230;47.520;19.016;2023-02-21T04:36:02;98876.91;;;9.02;64.13
42289;BME280;30230;47.520;19.016;2023-02-21T04:38:03;98867.53;;;8.84;64.67
42289;BME280;30230;47.520;19.016;2023-02-21T04:40:04;98882.06;;;9.03;63.81
42289;BME280;30230;47.520;19.016;2023-02-21T04:42:04;98867.00;;;9.16;63.79
42289;BME280;30230;47.520;19.016;2023-02-21T04:44:05;98866.13;;;9.08;63.59
42289;BME280;30230;47.520;19.016;2023-02-21T04:46:06;98876.50;;;9.11;63.68
42289;BME280;30230;47.520;19.016;2023-02-21T04:48:07;98881.66;;;9.00;64.09
42289;BME280;30230;47.520;19.016;2023-02-21T04:50:07;98879.81;;;9.07;63.93
42289;BME280;30230;47.520;19.016;2023-02-21T04:52:08;98892.06;;;9.16;63.36
42289;BME280;30230;47.520;19.016;2023-02-21T04:54:09;98892.69;;;9.18;63.08
42289;BME280;30230;47.520;19.016;2023-02-21T04:56:09;98886.25;;;9.12;63.17
42289;BME280;30230;47.520;19.016;2023-02-21T04:58:11;98875.03;;;9.02;63.86
42289;BME280;30230;47.520;19.016;2023-02-21T05:00:12;98875.44;;;8.99;64.22
42289;BME280;30230;47.520;19.016;2023-02-21T05:02:13;98875.47;;;9.06;63.89
42289;BME280;30230;47.520;19.016;2023-02-21T05:04:13;98880.03;;;9.19;63.69
42289;BME280;30230;47.520;19.016;2023-02-21T05:06:20;98885.41;;;9.12;63.93
42289;BME280;30230;47.520;19.016;2023-02-21T05:08:21;98872.16;;;9.10;64.32
42289;BME280;30230;47.520;19.016;2023-02-21T05:10:23;98872.31;;;8.96;64.53
42289;BME280;30230;47.520;19.016;2023-02-21T05:12:23;98877.72;;;9.02;64.78
42289;BME280;30230;47.520;19.016;2023-02-21T05:14:24;98876.69;;;8.97;64.81
42289;BME280;30230;47.520;19.016;2023-02-21T05:16:24;98873.16;;;8.96;64.68
42289;BME280;30230;47.520;19.016;2023-02-21T05:18:24;98872.72;;;8.93;65.28
42289;BME280;30230;47.520;19.016;2023-02-21T05:20:27;98850.94;;;8.87;65.02
42289;BME280;30230;47.520;19.016;2023-02-21T05:22:28;98872.53;;;8.94;65.13
42289;BME280;30230;47.520;19.016;2023-02-21T05:24:29;98888.09;;;9.05;64.51
42289;BME280;30230;47.520;19.016;2023-02-21T05:26:34;98877.72;;;9.02;64.46
42289;BME280;30230;47.520;19.016;2023-02-21T05:28:36;98878.13;;;8.99;64.53
42289;BME280;30230;47.520;19.016;2023-02-21T05:30:37;98866.47;;;8.79;65.47
42289;BME280;30230;47.520;19.016;2023-02-21T05:32:37;98862.75;;;8.80;65.42
42289;BME280;30230;47.520;19.016;2023-02-21T05:34:38;98876.66;;;8.90;65.44
42289;BME280;30230;47.520;19.016;2023-02-21T05:36:40;98869.41;;;8.97;65.24
42289;BME280;30230;47.520;19.016;2023-02-21T05:38:49;98868.81;;;8.95;64.84
42289;BME280;30230;47.520;19.016;2023-02-21T05:40:50;98865.28;;;9.01;64.54
42289;BME280;30230;47.520;19.016;2023-02-21T05:42:51;98859.47;;;8.91;65.41
42289;BME280;30230;47.520;19.016;2023-02-21T05:44:51;98878.16;;;9.12;64.28
42289;BME280;30230;47.520;19.016;2023-02-21T05:46:52;98867.78;;;8.96;65.06
42289;BME280;30230;47.520;19.016;2023-02-21T05:48:53;98865.06;;;8.96;64.87
42289;BME280;30230;47.520;19.016;2023-02-21T05:50:54;98863.38;;;8.88;65.32
42289;BME280;30230;47.520;19.016;2023-02-21T05:52:56;98873.38;;;8.95;65.26
42289;BME280;30230;47.520;19.016;2023-02-21T05:54:56;98879.97;;;8.92;65.39
42289;BME280;30230;47.520;19.016;2023-02-21T05:56:57;98871.28;;;8.97;65.20
42289;BME280;30230;47.520;19.016;2023-02-21T05:58:58;98877.28;;;8.92;65.12
42289;BME280;30230;47.520;19.016;2023-02-21T06:00:58;98877.34;;;9.05;64.82
42289;BME280;30230;47.520;19.016;2023-02-21T06:02:58;98883.13;;;9.09;65.09
42289;BME280;30230;47.520;19.016;2023-02-21T06:04:59;98891.03;;;9.10;64.59
42289;BME280;30230;47.520;19.016;2023-02-21T06:06:59;98896.41;;;9.10;64.73
42289;BME280;30230;47.520;19.016;2023-02-21T06:09:00;98882.06;;;9.03;64.97
42289;BME280;30230;47.520;19.016;2023-02-21T06:11:00;98891.41;;;9.07;65.36
42289;BME280;30230;47.520;19.016;2023-02-21T06:13:00;98886.41;;;9.04;65.24
42289;BME280;30230;47.520;19.016;2023-02-21T06:15:01;98883.94;;;8.96;65.59
42289;BME280;30230;47.520;19.016;2023-02-21T06:17:06;98907.56;;;9.01;65.39
42289;BME280;30230;47.520;19.016;2023-02-21T06:19:08;98902.19;;;9.07;64.96
42289;BME280;30230;47.520;19.016;2023-02-21T06:21:09;98908.63;;;9.13;64.99
42289;BME280;30230;47.520;19.016;2023-02-21T06:23:09;98908.41;;;9.08;65.20
42289;BME280;30230;47.520;19.016;2023-02-21T06:25:10;98910.72;;;9.11;64.91
42289;BME280;30230;47.520;19.016;2023-02-21T06:27:10;98905.03;;;8.93;65.67
42289;BME280;30230;47.520;19.016;2023-02-21T06:29:11;98916.03;;;8.91;65.88
42289;BME280;30230;47.520;19.016;2023-02-21T06:31:11;98910.03;;;8.96;65.40
42289;BME280;30230;47.520;19.016;2023-02-21T06:33:12;98905.50;;;9.09;65.74
42289;BME280;30230;47.520;19.016;2023-02-21T06:35:12;98904.06;;;9.07;65.52
42289;BME280;30230;47.520;19.016;2023-02-21T06:37:13;98917.97;;;9.10;66.14
42289;BME280;30230;47.520;19.016;2023-02-21T06:39:13;98922.78;;;9.28;64.71
42289;BME280;30230;47.520;19.016;2023-02-21T06:41:15;98922.56;;;9.30;64.87
42289;BME280;30230;47.520;19.016;2023-02-21T06:43:16;98915.94;;;9.32;65.04
42289;BME280;30230;47.520;19.016;2023-02-21T06:45:16;98912.63;;;9.30;65.33
42289;BME280;30230;47.520;19.016;2023-02-21T06:47:17;98926.31;;;9.35;65.44
42289;BME280;30230;47.520;19.016;2023-02-21T06:49:17;98920.72;;;9.37;65.81
42289;BME280;30230;47.520;19.016;2023-02-21T06:51:18;98932.34;;;9.37;66.17
42289;BME280;30230;47.520;19.016;2023-02-21T06:53:19;98917.63;;;9.53;65.42
42289;BME280;30230;47.520;19.016;2023-02-21T06:55:23;98924.03;;;9.46;66.14
42289;BME280;30230;47.520;19.016;2023-02-21T06:57:23;98921.16;;;9.60;65.06
42289;BME280;30230;47.520;19.016;2023-02-21T06:59:24;98929.06;;;9.62;65.72
42289;BME280;30230;47.520;19.016;2023-02-21T07:01:25;98929.69;;;9.71;65.27
42289;BME280;30230;47.520;19.016;2023-02-21T07:03:29;98928.88;;;9.90;65.52
42289;BME280;30230;47.520;19.016;2023-02-21T07:05:29;98930.72;;;10.09;64.43
42289;BME280;30230;47.520;19.016;2023-02-21T07:07:33;98925.53;;;10.28;63.86
42289;BME280;30230;47.520;19.016;2023-02-21T07:09:34;98928.84;;;10.43;61.75
42289;BME280;30230;47.520;19.016;2023-02-21T07:11:34;98928.22;;;10.41;62.09
42289;BME280;30230;47.520;19.016;2023-02-21T07:13:35;98932.38;;;10.37;61.85
42289;BME280;30230;47.520;19.016;2023-02-21T07:15:36;98929.25;;;10.33;61.88
42289;BME280;30230;47.520;19.016;2023-02-21T07:17:36;98947.94;;;10.41;60.07
42289;BME280;30230;47.520;19.016;2023-02-21T07:19:37;98947.47;;;10.64;59.16
42289;BME280;30230;47.520;19.016;2023-02-21T07:21:37;98947.44;;;10.78;59.50
42289;BME280;30230;47.520;19.016;2023-02-21T07:23:38;98956.59;;;10.77;59.00
42289;BME280;30230;47.520;19.016;2023-02-21T07:25:38;98968.47;;;10.62;58.63
42289;BME280;30230;47.520;19.016;2023-02-21T07:27:38;98959.56;;;10.55;58.83
42289;BME280;30230;47.520;19.016;2023-02-21T07:29:39;98959.81;;;10.40;60.03
42289;BME280;30230;47.520;19.016;2023-02-21T07:31:39;98962.06;;;10.50;58.90
42289;BME280;30230;47.520;19.016;2023-02-21T07:33:40;98969.53;;;10.55;60.35
42289;BME280;30230;47.520;19.016;2023-02-21T07:35:40;98968.94;;;10.46;60.77
42289;BME280;30230;47.520;19.016;2023-02-21T07:37:40;98963.72;;;10.51;59.93
42289;BME280;30230;47.520;19.016;2023-02-21T07:39:42;98958.13;;;10.46;60.29
42289;BME280;30230;47.520;19.016;2023-02-21T07:41:43;98961.66;;;10.40;60.55
42289;BME280;30230;47.520;19.016;2023-02-21T07:43:43;98961.44;;;10.41;61.24
42289;BME280;30230;47.520;19.016;2023-02-21T07:45:44;98964.97;;;10.42;60.92
42289;BME280;30230;47.520;19.016;2023-02-21T07:47:44;98959.16;;;10.38;60.67
42289;BME280;30230;47.520;19.016;2023-02-21T07:49:45;98907.88;;;10.12;60.69
42289;BME280;30230;47.520;19.016;2023-02-21T07:51:45;98896.03;;;10.13;60.65
42289;BME280;30230;47.520;19.016;2023-02-21T07:53:46;98871.53;;;10.21;59.57
42289;BME280;30230;47.520;19.016;2023-02-21T07:55:46;98844.13;;;10.17;59.40
42289;BME280;30230;47.520;19.016;2023-02-21T07:57:47;98928.28;;;10.92;59.87
42289;BME280;30230;47.520;19.016;2023-02-21T07:59:47;98936.53;;;11.04;58.88
42289;BME280;30230;47.520;19.016;2023-02-21T08:01:48;98945.50;;;10.98;59.06
42289;BME280;30230;47.520;19.016;2023-02-21T08:03:48;98929.94;;;10.93;59.66
42289;BME280;30230;47.520;19.016;2023-02-21T08:05:49;98935.97;;;10.89;59.71
42289;BME280;30230;47.520;19.016;2023-02-21T08:07:49;98938.03;;;10.93;59.15
42289;BME280;30230;47.520;19.016;2023-02-21T08:09:50;98934.69;;;10.98;59.43
42289;BME280;30230;47.520;19.016;2023-02-21T08:11:50;98943.66;;;10.92;59.82
42289;BME280;30230;47.520;19.016;2023-02-21T08:13:51;98942.00;;;10.91;59.85
42289;BME280;30230;47.520;19.016;2023-02-21T08:15:51;98939.03;;;11.06;59.81
42289;BME280;30230;47.520;19.016;2023-02-21T08:17:51;98932.38;;;11.08;59.94
42289;BME280;30230;47.520;19.016;2023-02-21T08:19:52;98840.94;;;10.60;59.96
42289;BME280;30230;47.520;19.016;2023-02-21T08:21:54;98858.91;;;10.86;58.70
42289;BME280;30230;47.520;19.016;2023-02-21T08:23:55;98908.66;;;11.10;58.70
42289;BME280;30230;47.520;19.016;2023-02-21T08:25:55;98895.25;;;11.29;58.10
42289;BME280;30230;47.520;19.016;2023-02-21T08:27:58;98877.38;;;11.21;58.01
42289;BME280;30230;47.520;19.016;2023-02-21T08:29:58;98930.66;;;11.52;57.67
42289;BME280;30230;47.520;19.016;2023-02-21T08:31:59;98899.53;;;11.43;57.29
42289;BME280;30230;47.520;19.016;2023-02-21T08:33:59;98947.75;;;11.78;57.52
42289;BME280;30230;47.520;19.016;2023-02-21T08:35:59;98938.13;;;11.88;57.47
42289;BME280;30230;47.520;19.016;2023-02-21T08:38:00;98949.34;;;11.92;57.72
42289;BME280;30230;47.520;19.016;2023-02-21T08:40:03;98950.78;;;11.63;58.84
42289;BME280;30230;47.520;19.016;2023-02-21T08:42:04;98960.09;;;11.73;58.04
42289;BME280;30230;47.520;19.016;2023-02-21T08:44:07;98944.00;;;11.85;57.22
42289;BME280;30230;47.520;19.016;2023-02-21T08:46:08;98956.16;;;12.01;57.30
42289;BME280;30230;47.520;19.016;2023-02-21T08:48:09;98935.88;;;11.85;57.89
42289;BME280;30230;47.520;19.016;2023-02-21T08:50:09;98949.53;;;11.97;57.63
42289;BME280;30230;47.520;19.016;2023-02-21T08:52:09;98940.34;;;11.98;57.42
42289;BME280;30230;47.520;19.016;2023-02-21T08:54:10;98948.09;;;11.94;58.73
42289;BME280;30230;47.520;19.016;2023-02-21T08:56:10;98943.69;;;12.00;58.65
42289;BME280;30230;47.520;19.016;2023-02-21T08:58:11;98929.13;;;12.19;57.95
42289;BME280;30230;47.520;19.016;2023-02-21T09:00:13;98949.09;;;12.25;57.75
42289;BME280;30230;47.520;19.016;2023-02-21T09:02:20;98941.81;;;12.44;57.08
42289;BME280;30230;47.520;19.016;2023-02-21T09:04:21;98947.03;;;12.64;56.91
42289;BME280;30230;47.520;19.016;2023-02-21T09:06:21;98947.44;;;12.67;56.91
42289;BME280;30230;47.520;19.016;2023-02-21T09:08:21;98944.34;;;12.82;55.63
42289;BME280;30230;47.520;19.016;2023-02-21T09:10:27;98943.06;;;12.85;56.57
42289;BME280;30230;47.520;19.016;2023-02-21T09:12:29;98936.22;;;12.82;56.54
42289;BME280;30230;47.520;19.016;2023-02-21T09:14:29;98942.53;;;12.94;56.50
42289;BME280;30230;47.520;19.016;2023-02-21T09:16:30;98938.59;;;13.09;55.49
42289;BME280;30230;47.520;19.016;2023-02-21T09:18:31;98954.44;;;12.93;55.90
42289;BME280;30230;47.520;19.016;2023-02-21T09:20:31;98948.38;;;12.91;56.39
42289;BME280;30230;47.520;19.016;2023-02-21T09:22:32;98950.41;;;13.14;56.57
42289;BME280;30230;47.520;19.016;2023-02-21T09:24:33;98939.91;;;13.18;54.99
42289;BME280;30230;47.520;19.016;2023-02-21T09:26:33;98950.50;;;13.26;55.46
42289;BME280;30230;47.520;19.016;2023-02-21T09:28:34;98946.19;;;13.18;54.92
42289;BME280;30230;47.520;19.016;2023-02-21T09:30:34;98945.97;;;13.20;55.15
42289;BME280;30230;47.520;19.016;2023-02-21T09:32:35;98938.00;;;13.07;55.75
42289;BME280;30230;47.520;19.016;2023-02-21T09:34:35;98944.31;;;13.00;56.04
42289;BME280;30230;47.520;19.016;2023-02-21T09:36:36;98945.47;;;12.93;56.47
42289;BME280;30230;47.520;19.016;2023-02-21T09:38:37;98952.84;;;13.04;55.86
42289;BME280;30230;47.520;19.016;2023-02-21T09:40:44;98945.28;;;13.06;56.19
42289;BME280;30230;47.520;19.016;2023-02-21T09:42:49;98952.00;;;13.03;56.54
42289;BME280;30230;47.520;19.016;2023-02-21T09:44:52;98944.19;;;12.95;56.52
42289;BME280;30230;47.520;19.016;2023-02-21T09:46:59;98954.59;;;12.98;56.49
42289;BME280;30230;47.520;19.016;2023-02-21T09:49:04;98947.84;;;13.19;56.11
42289;BME280;30230;47.520;19.016;2023-02-21T09:51:07;98964.06;;;13.26;56.38
42289;BME280;30230;47.520;19.016;2023-02-21T09:53:08;98955.19;;;13.49;55.78
42289;BME280;30230;47.520;19.016;2023-02-21T09:55:32;98956.22;;;13.66;54.68
42289;BME280;30230;47.520;19.016;2023-02-21T09:57:35;98942.28;;;13.63;54.56
42289;BME280;30230;47.520;19.016;2023-02-21T09:59:35;98948.91;;;13.67;56.14
42289;BME280;30230;47.520;19.016;2023-02-21T10:01:58;98943.63;;;13.84;54.88
42289;BME280;30230;47.520;19.016;2023-02-21T10:04:09;98961.69;;;13.90;54.69
42289;BME280;30230;47.520;19.016;2023-02-21T10:08:38;98949.16;;;13.77;55.11
42289;BME280;30230;47.520;19.016;2023-02-21T10:10:48;98964.28;;;13.85;55.27
42289;BME280;30230;47.520;19.016;2023-02-21T10:17:05;98957.19;;;13.84;55.20
42289;BME280;30230;47.520;19.016;2023-02-21T10:21:24;98968.19;;;13.89;57.03
42289;BME280;30230;47.520;19.016;2023-02-21T10:23:30;98953.81;;;14.00;56.34
42289;BME280;30230;47.520;19.016;2023-02-21T10:25:33;98947.94;;;14.15;55.16
42289;BME280;30230;47.520;19.016;2023-02-21T10:27:35;98957.03;;;14.20;55.25
42289;BME280;30230;47.520;19.016;2023-02-21T10:29:53;98952.66;;;14.19;55.97
42289;BME280;30230;47.520;19.016;2023-02-21T10:31:59;98948.53;;;14.40;55.07
42289;BME280;30230;47.520;19.016;2023-02-21T10:34:04;98949.28;;;14.59;56.44
42289;BME280;30230;47.520;19.016;2023-02-21T10:36:12;98939.91;;;14.67;53.71
42289;BME280;30230;47.520;19.016;2023-02-21T10:38:18;98941.09;;;14.82;53.96
42289;BME280;30230;47.520;19.016;2023-02-21T10:42:29;98935.97;;;14.98;52.69
42289;BME280;30230;47.520;19.016;2023-02-21T10:44:33;98937.63;;;14.99;52.95
42289;BME280;30230;47.520;19.016;2023-02-21T10:46:39;98945.81;;;14.87;54.76
42289;BME280;30230;47.520;19.016;2023-02-21T10:48:43;98932.97;;;14.59;53.70
42289;BME280;30230;47.520;19.016;2023-02-21T10:51:11;98939.34;;;14.65;53.87
42289;BME280;30230;47.520;19.016;2023-02-21T10:55:23;98946.09;;;14.74;53.65
42289;BME280;30230;47.520;19.016;2023-02-21T10:57:24;98949.13;;;14.89;53.40
42289;BME280;30230;47.520;19.016;2023-02-21T10:59:34;98942.47;;;14.97;53.61
42289;BME280;30230;47.520;19.016;2023-02-21T11:01:45;98951.41;;;15.21;53.12
42289;BME280;30230;47.520;19.016;2023-02-21T11:03:51;98936.75;;;15.22;52.41
42289;BME280;30230;47.520;19.016;2023-02-21T11:05:54;98947.16;;;15.25;52.74
42289;BME280;30230;47.520;19.016;2023-02-21T11:08:08;98950.66;;;15.37;52.22
42289;BME280;30230;47.520;19.016;2023-02-21T11:10:28;98944.13;;;15.38;51.20
42289;BME280;30230;47.520;19.016;2023-02-21T11:12:28;98930.47;;;15.50;51.37
42289;BME280;30230;47.520;19.016;2023-02-21T11:14:32;98938.38;;;15.63;51.05
42289;BME280;30230;47.520;19.016;2023-02-21T11:16:33;98933.59;;;15.70;51.38
42289;BME280;30230;47.520;19.016;2023-02-21T11:18:35;98931.59;;;15.66;51.50
42289;BME280;30230;47.520;19.016;2023-02-21T11:20:36;98916.13;;;15.66;50.88
42289;BME280;30230;47.520;19.016;2023-02-21T11:22:39;98933.34;;;15.43;51.21
42289;BME280;30230;47.520;19.016;2023-02-21T11:24:57;98929.06;;;15.47;51.77
42289;BME280;30230;47.520;19.016;2023-02-21T11:26:58;98921.34;;;15.56;51.56
42289;BME280;30230;47.520;19.016;2023-02-21T11:29:11;98920.50;;;15.84;51.33
42289;BME280;30230;47.520;19.016;2023-02-21T11:31:17;98925.38;;;15.82;50.99
42289;BME280;30230;47.520;19.016;2023-02-21T11:33:22;98929.31;;;15.74;51.96
42289;BME280;30230;47.520;19.016;2023-02-21T11:35:38;98934.19;;;15.89;51.13
42289;BME280;30230;47.520;19.016;2023-02-21T11:40:00;98918.38;;;16.03;49.81
42289;BME280;30230;47.520;19.016;2023-02-21T11:42:03;98930.41;;;15.90;50.91
42289;BME280;30230;47.520;19.016;2023-02-21T11:48:32;98937.56;;;15.79;50.97
42289;BME280;30230;47.520;19.016;2023-02-21T11:50:41;98920.06;;;15.75;51.33
42289;BME280;30230;47.520;19.016;2023-02-21T11:52:53;98924.03;;;16.01;51.35
42289;BME280;30230;47.520;19.016;2023-02-21T11:54:55;98908.53;;;16.19;50.50
42289;BME280;30230;47.520;19.016;2023-02-21T12:01:20;98917.34;;;15.75;50.49
42289;BME280;30230;47.520;19.016;2023-02-21T12:15:07;98920.94;;;15.93;50.45
42289;BME280;30230;47.520;19.016;2023-02-21T12:22:19;98913.28;;;15.61;52.75
42289;BME280;30230;47.520;19.016;2023-02-21T12:33:38;98916.13;;;15.83;51.31
42289;BME280;30230;47.520;19.016;2023-02-21T12:40:52;98911.38;;;15.61;51.83
42289;BME280;30230;47.520;19.016;2023-02-21T12:43:29;98913.28;;;15.61;52.37